Mostovskoy, Russia
Current Conditions -  °F | °C
As of 5:00 AM on Monday 26 Jan 2015 (Local Time) from URMT Reporting Station
Overcast Overcast  
Wind Chill: 24°   Ceiling: 300
Heat Index: 32°   Visibility: 6mi
Dew Point: 32°   Wind: 9mph
Humidity: 100%   Direction: 130°SE
Pressure: 30.12"   Gusts: 16mph
Location:  44.41°N, 40.79°E
Report Text: URMT 260200Z 13004G07MPS 9999 OVC003 M00/M00 Q1020 NOSIG RMKQBB090 OBST OBSC QFE725 SC060
Loading
Personal Weather Stations






























Interactive Weather Map New forecast layout! Learn more

10-Day Weather Forecast

Advertisements
Track Severe Weather on mobile